createdAt,value
2018-08-28T00:00:36.991Z,100703.00
2018-08-28T00:03:06.312Z,100711.00
2018-08-28T00:05:35.334Z,100715.00
2018-08-28T00:08:04.503Z,100719.00
2018-08-28T00:10:33.543Z,100722.00
2018-08-28T00:13:02.661Z,100720.00
2018-08-28T00:15:31.802Z,100720.00
2018-08-28T00:18:00.850Z,100727.00
2018-08-28T00:20:29.896Z,100729.00
2018-08-28T00:22:58.936Z,100728.00
2018-08-28T00:25:27.975Z,100721.00
2018-08-28T00:27:57.019Z,100736.00
2018-08-28T00:30:26.064Z,100734.00
2018-08-28T00:32:55.104Z,100729.00
2018-08-28T00:35:24.174Z,100733.00
2018-08-28T00:37:53.203Z,100732.00
2018-08-28T00:40:22.262Z,100741.00
2018-08-28T00:42:51.398Z,100735.00
2018-08-28T00:45:20.494Z,100741.00
2018-08-28T00:47:49.601Z,100740.00
2018-08-28T00:50:18.696Z,100746.00
2018-08-28T00:52:48.547Z,100746.00
2018-08-28T00:55:17.717Z,100750.00
2018-08-28T00:57:46.995Z,100744.00
2018-08-28T01:00:16.154Z,100739.00
2018-08-28T01:02:45.197Z,100750.00
2018-08-28T01:05:14.246Z,100747.00
2018-08-28T01:07:43.305Z,100750.00
2018-08-28T01:10:12.326Z,100753.00
2018-08-28T01:12:41.389Z,100759.00
2018-08-28T01:15:10.410Z,100761.00
2018-08-28T01:17:39.460Z,100768.00
2018-08-28T01:20:08.454Z,100771.00
2018-08-28T01:22:37.504Z,100783.00
2018-08-28T01:25:07.126Z,100778.00
2018-08-28T01:27:36.157Z,100770.00
2018-08-28T01:30:05.210Z,100784.00
2018-08-28T01:32:34.342Z,100781.00
2018-08-28T01:35:03.374Z,100779.00
2018-08-28T01:37:33.545Z,100780.00
2018-08-28T01:40:02.698Z,100782.00
2018-08-28T01:42:31.749Z,100788.00
2018-08-28T01:45:00.810Z,100785.00
2018-08-28T01:47:29.873Z,100800.00
2018-08-28T01:49:58.976Z,100796.00
2018-08-28T01:52:28.113Z,100801.00
2018-08-28T01:54:57.169Z,100800.00
2018-08-28T01:57:26.326Z,100789.00
2018-08-28T01:59:55.330Z,100793.00
2018-08-28T02:02:24.351Z,100790.00
2018-08-28T02:04:53.375Z,100793.00
2018-08-28T02:07:22.437Z,100793.00
2018-08-28T02:09:51.445Z,100803.00
2018-08-28T02:12:20.467Z,100797.00
2018-08-28T02:14:49.488Z,100793.00
2018-08-28T02:17:18.519Z,100804.00
2018-08-28T02:19:47.532Z,100797.00
2018-08-28T02:22:16.604Z,100805.00
2018-08-28T02:24:45.601Z,100801.00
2018-08-28T02:27:14.642Z,100799.00
2018-08-28T02:29:43.743Z,100797.00
2018-08-28T02:32:12.875Z,100788.00
2018-08-28T02:34:42.713Z,100795.00
2018-08-28T02:37:12.355Z,100802.00
2018-08-28T02:39:42.560Z,100800.00
2018-08-28T02:42:11.659Z,100807.00
2018-08-28T02:44:40.692Z,100811.00
2018-08-28T02:47:09.814Z,100812.00
2018-08-28T02:49:38.880Z,100812.00
2018-08-28T02:52:07.993Z,100814.00
2018-08-28T02:54:37.115Z,100819.00
2018-08-28T02:57:06.163Z,100823.00
2018-08-28T02:59:35.183Z,100818.00
2018-08-28T03:02:04.297Z,100819.00
2018-08-28T03:04:33.370Z,100829.00
2018-08-28T03:07:02.407Z,100818.00
2018-08-28T03:09:31.440Z,100834.00
2018-08-28T03:12:00.469Z,100821.00
2018-08-28T03:14:29.541Z,100832.00
2018-08-28T03:16:58.612Z,100845.00
2018-08-28T03:19:27.714Z,100837.00
2018-08-28T03:21:56.796Z,100836.00
2018-08-28T03:24:25.926Z,100839.00
2018-08-28T03:26:55.016Z,100835.00
2018-08-28T03:29:24.050Z,100838.00
2018-08-28T03:31:53.158Z,100845.00
2018-08-28T03:34:22.246Z,100850.00
2018-08-28T03:36:51.343Z,100849.00
2018-08-28T03:39:20.362Z,100859.00
2018-08-28T03:41:49.436Z,100850.00
2018-08-28T03:44:18.501Z,100861.00
2018-08-28T03:46:47.579Z,100868.00
2018-08-28T03:49:16.623Z,100872.00
2018-08-28T03:51:45.725Z,100871.00
2018-08-28T03:54:14.977Z,100883.00
2018-08-28T03:56:44.023Z,100874.00
2018-08-28T03:59:13.060Z,100879.00
2018-08-28T04:01:42.111Z,100885.00
2018-08-28T04:04:11.180Z,100882.00
2018-08-28T04:06:40.236Z,100882.00
2018-08-28T04:09:09.874Z,100887.00
2018-08-28T04:11:38.921Z,100888.00
2018-08-28T04:14:07.982Z,100891.00
2018-08-28T04:16:37.034Z,100896.00
2018-08-28T04:19:06.403Z,100896.00
2018-08-28T04:21:35.481Z,100898.00
2018-08-28T04:24:04.671Z,100903.00
2018-08-28T04:26:33.864Z,100900.00
2018-08-28T04:29:02.937Z,100910.00
2018-08-28T04:31:31.972Z,100907.00
2018-08-28T04:34:01.584Z,100904.00
2018-08-28T04:36:30.755Z,100909.00
2018-08-28T04:38:59.872Z,100908.00
2018-08-28T04:41:29.075Z,100914.00
2018-08-28T04:43:58.132Z,100917.00
2018-08-28T04:46:27.267Z,100917.00
2018-08-28T04:48:56.496Z,100922.00
2018-08-28T04:51:25.551Z,100923.00
2018-08-28T04:53:54.626Z,100923.00
2018-08-28T04:56:23.890Z,100919.00
2018-08-28T04:58:52.910Z,100922.00
2018-08-28T05:01:21.987Z,100932.00
2018-08-28T05:03:51.009Z,100927.00
2018-08-28T05:06:20.260Z,100936.00
2018-08-28T05:08:49.366Z,100941.00
2018-08-28T05:11:18.460Z,100933.00
2018-08-28T05:13:47.459Z,100939.00
2018-08-28T05:16:16.591Z,100950.00
2018-08-28T05:18:45.679Z,100950.00
2018-08-28T05:21:14.767Z,100950.00
2018-08-28T05:23:43.794Z,100958.00
2018-08-28T05:26:12.908Z,100957.00
2018-08-28T05:28:41.997Z,100961.00
2018-08-28T05:31:11.462Z,100963.00
2018-08-28T05:33:40.531Z,100967.00
2018-08-28T05:36:09.653Z,100970.00
2018-08-28T05:38:38.783Z,100966.00
2018-08-28T05:41:09.607Z,100970.00
2018-08-28T05:43:38.853Z,100980.00
2018-08-28T05:46:08.159Z,100985.00
2018-08-28T05:48:37.292Z,100984.00
2018-08-28T05:51:06.413Z,100992.00
2018-08-28T05:53:36.043Z,100988.00
2018-08-28T05:56:05.177Z,100977.00
2018-08-28T05:58:34.194Z,100994.00
2018-08-28T06:01:03.319Z,100995.00
2018-08-28T06:03:32.726Z,100986.00
2018-08-28T06:06:02.732Z,100985.00
2018-08-28T06:08:31.776Z,100985.00
2018-08-28T06:11:00.921Z,100992.00
2018-08-28T06:13:29.993Z,100985.00
2018-08-28T06:15:59.086Z,100994.00
2018-08-28T06:18:28.135Z,100991.00
2018-08-28T06:20:57.191Z,100997.00
2018-08-28T06:23:26.243Z,100991.00
2018-08-28T06:25:55.257Z,100847.00
2018-08-28T06:28:24.323Z,101002.00
2018-08-28T06:30:53.384Z,100993.00
2018-08-28T06:33:22.476Z,101006.00
2018-08-28T06:35:51.586Z,101007.00
2018-08-28T06:38:20.641Z,101000.00
2018-08-28T06:40:49.755Z,101002.00
2018-08-28T06:43:18.834Z,101011.00
2018-08-28T06:45:48.078Z,101013.00
2018-08-28T06:48:17.196Z,101019.00
2018-08-28T06:50:46.582Z,101009.00
2018-08-28T06:53:15.835Z,101020.00
2018-08-28T06:55:45.115Z,101030.00
2018-08-28T06:58:14.216Z,101032.00
2018-08-28T07:00:44.500Z,101029.00
2018-08-28T07:03:13.635Z,101040.00
2018-08-28T07:05:43.404Z,101038.00
2018-08-28T07:08:14.019Z,101042.00
2018-08-28T07:10:43.094Z,101043.00
2018-08-28T07:13:12.178Z,101046.00
2018-08-28T07:15:41.207Z,101045.00
2018-08-28T07:18:10.570Z,101037.00
2018-08-28T07:20:39.653Z,101044.00
2018-08-28T07:23:08.786Z,101048.00
2018-08-28T07:25:37.995Z,101047.00
2018-08-28T07:28:06.963Z,101048.00
2018-08-28T07:30:36.353Z,101046.00
2018-08-28T07:33:05.431Z,101043.00
2018-08-28T07:35:34.577Z,101049.00
2018-08-28T07:38:03.855Z,101054.00
2018-08-28T07:40:32.922Z,101056.00
2018-08-28T07:43:01.987Z,101057.00
2018-08-28T07:45:31.016Z,101059.00
2018-08-28T07:48:00.078Z,101061.00
2018-08-28T07:50:29.215Z,101063.00
2018-08-28T07:52:58.336Z,101057.00
2018-08-28T07:55:27.523Z,101067.00
2018-08-28T07:57:57.074Z,101066.00
2018-08-28T08:00:26.376Z,101070.00
2018-08-28T08:02:55.540Z,101069.00
2018-08-28T08:05:24.622Z,101063.00
2018-08-28T08:07:53.700Z,101072.00
2018-08-28T08:10:22.780Z,101071.00
2018-08-28T08:12:51.810Z,101077.00
2018-08-28T08:15:20.868Z,101078.00
2018-08-28T08:17:50.090Z,101079.00
2018-08-28T08:20:19.239Z,101081.00
2018-08-28T08:22:48.412Z,101096.00
2018-08-28T08:25:17.455Z,101084.00
2018-08-28T08:27:46.661Z,101104.00
2018-08-28T08:30:15.747Z,101103.00
2018-08-28T08:32:44.791Z,101102.00
2018-08-28T08:35:13.945Z,101095.00
2018-08-28T08:37:42.980Z,101101.00
2018-08-28T08:40:12.135Z,101096.00
2018-08-28T08:42:41.439Z,101096.00
2018-08-28T08:45:10.563Z,101092.00
2018-08-28T08:47:39.839Z,101108.00
2018-08-28T08:50:09.330Z,101094.00
2018-08-28T08:52:38.399Z,101092.00
2018-08-28T08:55:08.099Z,101100.00
2018-08-28T08:57:37.305Z,101087.00
2018-08-28T09:00:06.599Z,101096.00
2018-08-28T09:02:35.726Z,101092.00
2018-08-28T09:05:05.709Z,101091.00
2018-08-28T09:07:34.839Z,101082.00
2018-08-28T09:10:03.887Z,101094.00
2018-08-28T09:12:33.001Z,101084.00
2018-08-28T09:15:02.048Z,101087.00
2018-08-28T09:17:31.099Z,101080.00
2018-08-28T09:20:00.119Z,101088.00
2018-08-28T09:22:29.270Z,101075.00
2018-08-28T09:24:58.393Z,101087.00
2018-08-28T09:27:27.550Z,101092.00
2018-08-28T09:29:56.594Z,101084.00
2018-08-28T09:32:25.787Z,101088.00
2018-08-28T09:34:54.851Z,101081.00
2018-08-28T09:37:23.911Z,101093.00
2018-08-28T09:39:58.853Z,101090.00
2018-08-28T09:42:28.085Z,101093.00
2018-08-28T09:44:57.191Z,101094.00
2018-08-28T09:47:26.264Z,101091.00
2018-08-28T09:49:55.419Z,101095.00
2018-08-28T09:52:24.441Z,101105.00
2018-08-28T09:54:53.512Z,101107.00
2018-08-28T09:57:22.564Z,101094.00
2018-08-28T09:59:51.864Z,101109.00
2018-08-28T10:02:20.950Z,101105.00
2018-08-28T10:04:50.299Z,101110.00
2018-08-28T10:07:19.518Z,101112.00
2018-08-28T10:09:50.633Z,101116.00
2018-08-28T10:12:21.566Z,101113.00
2018-08-28T10:14:50.802Z,101121.00
2018-08-28T10:17:20.464Z,101116.00
2018-08-28T10:19:49.605Z,101117.00
2018-08-28T10:22:18.804Z,101121.00
2018-08-28T10:24:48.313Z,101126.00
2018-08-28T10:27:17.517Z,101114.00
2018-08-28T10:29:46.704Z,101117.00
2018-08-28T10:32:15.803Z,101119.00
2018-08-28T10:34:44.914Z,101122.00
2018-08-28T10:37:14.051Z,101119.00
2018-08-28T10:39:43.105Z,101124.00
2018-08-28T10:42:12.264Z,101128.00
2018-08-28T10:44:46.874Z,101123.00
2018-08-28T10:47:16.023Z,101120.00
2018-08-28T10:49:45.934Z,101125.00
2018-08-28T10:52:15.006Z,101118.00
2018-08-28T10:54:44.304Z,101127.00
2018-08-28T10:57:14.390Z,101126.00
2018-08-28T10:59:45.862Z,101118.00
2018-08-28T11:02:24.271Z,101123.00
2018-08-28T11:04:55.882Z,101130.00
2018-08-28T11:07:25.557Z,101133.00
2018-08-28T11:09:55.061Z,101131.00
2018-08-28T11:12:24.607Z,101134.00
2018-08-28T11:14:53.684Z,101140.00
2018-08-28T11:17:22.908Z,101139.00
2018-08-28T11:19:53.141Z,101138.00
2018-08-28T11:22:22.218Z,101141.00
2018-08-28T11:24:51.371Z,101134.00
2018-08-28T11:27:20.698Z,101133.00
2018-08-28T11:29:49.751Z,101141.00
2018-08-28T11:32:19.927Z,101140.00
2018-08-28T11:34:49.074Z,101143.00
2018-08-28T11:37:19.956Z,101141.00
2018-08-28T11:39:49.187Z,101136.00
2018-08-28T11:44:54.646Z,101142.00
2018-08-28T11:47:23.801Z,101140.00
2018-08-28T11:49:52.840Z,101140.00
2018-08-28T11:52:21.916Z,101143.00
2018-08-28T11:54:51.025Z,101148.00
2018-08-28T11:57:20.095Z,101150.00
2018-08-28T11:59:49.259Z,101144.00
2018-08-28T12:02:18.410Z,101143.00
2018-08-28T12:04:47.505Z,101145.00
2018-08-28T12:07:16.651Z,101141.00
2018-08-28T12:09:45.665Z,101136.00
2018-08-28T12:12:15.165Z,101149.00
2018-08-28T12:14:44.302Z,101146.00
2018-08-28T12:17:13.456Z,101159.00
2018-08-28T12:19:42.883Z,101152.00
2018-08-28T12:22:12.103Z,101147.00
2018-08-28T12:24:41.666Z,101156.00
2018-08-28T12:27:10.827Z,101161.00
2018-08-28T12:29:42.781Z,101160.00
2018-08-28T12:32:12.316Z,101164.00
2018-08-28T12:34:41.637Z,101158.00
2018-08-28T12:37:11.641Z,101159.00
2018-08-28T12:39:40.821Z,101175.00
2018-08-28T12:42:10.222Z,101163.00
2018-08-28T12:44:39.388Z,101156.00
2018-08-28T12:47:08.556Z,101156.00
2018-08-28T12:49:37.620Z,101157.00
2018-08-28T12:52:06.746Z,101164.00
2018-08-28T12:54:35.974Z,101165.00
2018-08-28T12:57:05.122Z,101162.00
2018-08-28T12:59:34.203Z,101163.00
2018-08-28T13:02:03.383Z,101162.00
2018-08-28T13:04:32.423Z,101171.00
2018-08-28T13:07:01.610Z,101168.00
2018-08-28T13:09:30.687Z,101167.00
2018-08-28T13:12:00.089Z,101164.00
2018-08-28T13:14:29.224Z,101167.00
2018-08-28T13:16:58.556Z,101169.00
2018-08-28T13:19:27.668Z,101168.00
2018-08-28T13:21:56.861Z,101168.00
2018-08-28T13:24:25.946Z,101172.00
2018-08-28T13:26:55.064Z,101172.00
2018-08-28T13:29:24.253Z,101170.00
2018-08-28T13:31:54.837Z,101178.00
2018-08-28T13:34:24.131Z,101166.00
2018-08-28T13:36:53.591Z,101175.00
2018-08-28T13:39:22.893Z,101173.00
2018-08-28T13:41:51.943Z,101173.00
2018-08-28T13:44:21.084Z,101167.00
2018-08-28T13:46:50.317Z,101170.00
2018-08-28T13:49:19.358Z,101172.00
2018-08-28T13:51:48.408Z,101164.00
2018-08-28T13:54:17.705Z,101170.00
2018-08-28T13:56:47.763Z,101167.00
2018-08-28T13:59:16.852Z,101164.00
2018-08-28T14:01:45.889Z,101167.00
2018-08-28T14:04:14.983Z,101167.00
2018-08-28T14:06:44.490Z,101167.00
2018-08-28T14:09:13.657Z,101175.00
2018-08-28T14:11:43.475Z,101175.00
2018-08-28T14:14:12.530Z,101176.00
2018-08-28T14:16:41.608Z,101170.00
2018-08-28T14:19:10.701Z,101169.00
2018-08-28T14:21:39.749Z,101174.00
2018-08-28T14:24:08.844Z,101179.00
2018-08-28T14:26:38.072Z,101168.00
2018-08-28T14:29:07.362Z,101167.00
2018-08-28T14:31:36.442Z,101181.00
2018-08-28T14:34:05.574Z,101176.00
2018-08-28T14:36:34.694Z,101170.00
2018-08-28T14:39:04.914Z,101173.00
2018-08-28T14:41:33.999Z,101179.00
2018-08-28T14:44:03.202Z,101164.00
2018-08-28T14:46:32.494Z,101170.00
2018-08-28T14:49:01.750Z,101165.00
2018-08-28T14:51:30.992Z,101170.00
2018-08-28T14:54:00.094Z,101164.00
2018-08-28T14:56:29.536Z,101158.00
2018-08-28T14:58:58.858Z,101158.00
2018-08-28T15:01:28.042Z,101158.00
2018-08-28T15:04:02.440Z,101152.00
2018-08-28T15:06:32.019Z,101158.00
2018-08-28T15:09:02.339Z,101090.00
2018-08-28T15:11:31.512Z,101150.00
2018-08-28T15:14:01.046Z,101146.00
2018-08-28T15:16:30.189Z,101142.00
2018-08-28T15:18:59.187Z,101135.00
2018-08-28T15:21:28.268Z,101144.00
2018-08-28T15:23:57.482Z,101143.00
2018-08-28T15:26:26.542Z,101145.00
2018-08-28T15:28:55.642Z,101133.00
2018-08-28T15:31:24.776Z,101139.00
2018-08-28T15:33:53.830Z,101142.00
2018-08-28T15:36:22.908Z,101140.00
2018-08-28T15:38:52.206Z,101137.00
2018-08-28T15:41:21.323Z,101135.00
2018-08-28T15:43:50.386Z,101135.00
2018-08-28T15:46:19.538Z,101135.00
2018-08-28T15:48:48.632Z,101138.00
2018-08-28T15:51:17.760Z,101143.00
2018-08-28T15:53:47.003Z,101136.00
2018-08-28T15:56:16.951Z,101132.00
2018-08-28T15:58:46.027Z,101141.00
2018-08-28T16:01:15.266Z,101141.00
2018-08-28T16:03:44.512Z,101143.00
2018-08-28T16:06:13.749Z,101135.00
2018-08-28T16:08:42.871Z,101132.00
2018-08-28T16:11:12.969Z,101136.00
2018-08-28T16:13:42.069Z,101141.00
2018-08-28T16:16:11.171Z,101132.00
2018-08-28T16:18:40.326Z,101142.00
2018-08-28T16:21:09.395Z,101139.00
2018-08-28T16:23:40.731Z,101134.00
2018-08-28T16:26:09.755Z,101138.00
2018-08-28T16:28:38.814Z,101136.00
2018-08-28T16:31:07.901Z,101140.00
2018-08-28T16:33:37.098Z,101143.00
2018-08-28T16:36:06.316Z,101138.00
2018-08-28T16:38:35.466Z,101134.00
2018-08-28T16:41:04.656Z,101132.00
2018-08-28T16:46:41.319Z,101142.00
2018-08-28T16:49:10.312Z,101133.00
2018-08-28T16:51:39.372Z,101132.00
2018-08-28T16:54:08.475Z,101134.00
2018-08-28T16:56:37.532Z,101131.00
2018-08-28T16:59:06.624Z,101134.00
2018-08-28T17:01:35.852Z,101131.00
2018-08-28T17:04:04.849Z,101132.00
2018-08-28T17:06:33.968Z,101128.00
2018-08-28T17:09:03.587Z,101125.00
2018-08-28T17:11:32.770Z,101153.00
2018-08-28T17:14:01.884Z,101134.00
2018-08-28T17:16:31.469Z,101138.00
2018-08-28T17:19:01.122Z,101126.00
2018-08-28T17:21:30.344Z,101142.00
2018-08-28T17:23:59.555Z,101132.00
2018-08-28T17:26:28.911Z,101140.00
2018-08-28T17:28:58.168Z,101138.00
2018-08-28T17:31:28.118Z,101139.00
2018-08-28T17:33:59.360Z,101149.00
2018-08-28T17:36:28.930Z,101144.00
2018-08-28T17:38:59.709Z,101142.00
2018-08-28T17:41:32.655Z,101146.00
2018-08-28T17:44:06.944Z,101148.00
2018-08-28T17:46:36.067Z,101144.00
2018-08-28T17:49:06.282Z,101152.00
2018-08-28T17:51:36.416Z,101149.00
2018-08-28T17:54:05.583Z,101164.00
2018-08-28T17:56:34.895Z,101156.00
2018-08-28T17:59:04.440Z,101162.00
2018-08-28T18:01:33.916Z,101161.00
2018-08-28T18:04:04.494Z,101163.00
2018-08-28T18:06:35.998Z,101168.00
2018-08-28T18:09:06.400Z,101170.00
2018-08-28T18:11:35.768Z,101165.00
2018-08-28T18:14:05.146Z,101170.00
2018-08-28T18:16:34.628Z,101175.00
2018-08-28T18:19:03.928Z,101174.00
2018-08-28T18:21:33.118Z,101170.00
2018-08-28T18:24:02.289Z,101177.00
2018-08-28T18:26:31.437Z,101173.00
2018-08-28T18:29:00.648Z,101178.00
2018-08-28T18:31:29.810Z,101180.00
2018-08-28T18:33:58.986Z,101181.00
2018-08-28T18:36:28.094Z,101187.00
2018-08-28T18:38:57.425Z,101183.00
2018-08-28T18:41:26.555Z,101186.00
2018-08-28T18:43:55.965Z,101190.00
2018-08-28T18:46:25.109Z,101180.00
2018-08-28T18:48:54.239Z,101182.00
2018-08-28T18:51:24.082Z,101189.00
2018-08-28T18:53:53.223Z,101183.00
2018-08-28T18:56:22.480Z,101183.00
2018-08-28T18:58:51.681Z,101182.00
2018-08-28T19:01:21.106Z,101183.00
2018-08-28T19:03:50.285Z,101180.00
2018-08-28T19:06:19.728Z,101180.00
2018-08-28T19:08:49.380Z,101180.00
2018-08-28T19:11:19.803Z,101184.00
2018-08-28T19:13:49.226Z,101185.00
2018-08-28T19:16:18.809Z,101185.00
2018-08-28T19:18:48.136Z,101184.00
2018-08-28T19:21:17.619Z,101184.00
2018-08-28T19:23:47.340Z,101181.00
2018-08-28T19:26:16.755Z,101188.00
2018-08-28T19:28:46.208Z,101180.00
2018-08-28T19:31:15.522Z,101186.00
2018-08-28T19:33:44.889Z,101190.00
2018-08-28T19:36:14.147Z,101189.00
2018-08-28T19:38:43.378Z,101180.00
2018-08-28T19:41:12.508Z,101183.00
2018-08-28T19:43:41.714Z,101176.00
2018-08-28T19:46:10.861Z,101182.00
2018-08-28T19:48:40.011Z,101179.00
2018-08-28T19:51:09.174Z,101184.00
2018-08-28T19:53:38.430Z,101180.00
2018-08-28T19:56:07.601Z,101179.00
2018-08-28T19:58:36.802Z,101162.00
2018-08-28T20:01:05.960Z,101176.00
2018-08-28T20:03:35.056Z,101174.00
2018-08-28T20:06:04.135Z,101170.00
2018-08-28T20:08:33.266Z,101166.00
2018-08-28T20:11:02.495Z,101167.00
2018-08-28T20:13:31.819Z,101168.00
2018-08-28T20:16:01.035Z,101170.00
2018-08-28T20:18:30.250Z,101164.00
2018-08-28T20:20:59.656Z,101169.00
2018-08-28T20:23:29.241Z,101163.00
2018-08-28T20:25:58.664Z,101160.00
2018-08-28T20:28:28.074Z,101153.00
2018-08-28T20:30:57.530Z,101158.00
2018-08-28T20:33:26.991Z,101151.00
2018-08-28T20:35:56.388Z,101153.00
2018-08-28T20:38:26.607Z,101152.00
2018-08-28T20:40:55.917Z,101150.00
2018-08-28T20:43:35.495Z,101149.00
2018-08-28T20:46:04.961Z,101148.00
2018-08-28T20:48:34.297Z,101149.00
2018-08-28T20:51:03.906Z,101144.00
2018-08-28T20:53:33.304Z,101146.00
2018-08-28T20:56:02.680Z,101153.00
2018-08-28T20:58:31.894Z,101141.00
2018-08-28T21:01:01.182Z,101141.00
2018-08-28T21:03:30.453Z,101145.00
2018-08-28T21:06:00.045Z,101139.00
2018-08-28T21:08:29.208Z,101134.00
2018-08-28T21:10:58.344Z,101135.00
2018-08-28T21:13:27.556Z,101134.00
2018-08-28T21:15:56.690Z,101136.00
2018-08-28T21:18:26.079Z,101132.00
2018-08-28T21:20:55.210Z,101124.00
2018-08-28T21:23:24.310Z,101130.00
2018-08-28T21:25:53.390Z,101125.00
2018-08-28T21:28:22.542Z,101122.00
2018-08-28T21:30:51.964Z,101116.00
2018-08-28T21:33:21.175Z,101114.00
2018-08-28T21:35:51.014Z,101112.00
2018-08-28T21:38:20.077Z,101108.00
2018-08-28T21:40:49.594Z,101101.00
2018-08-28T21:43:18.666Z,101111.00
2018-08-28T21:45:47.774Z,101119.00
2018-08-28T21:48:17.048Z,101120.00
2018-08-28T21:50:46.235Z,101112.00
2018-08-28T21:53:15.582Z,101109.00
2018-08-28T21:55:44.711Z,101122.00
2018-08-28T21:58:13.877Z,101120.00
2018-08-28T22:00:43.064Z,101124.00
2018-08-28T22:03:12.216Z,101121.00
2018-08-28T22:05:41.880Z,101124.00
2018-08-28T22:08:11.380Z,101122.00
2018-08-28T22:10:40.506Z,101126.00
2018-08-28T22:13:10.103Z,101119.00
2018-08-28T22:15:39.149Z,101109.00
2018-08-28T22:18:08.224Z,101116.00
2018-08-28T22:20:37.268Z,101104.00
2018-08-28T22:23:06.322Z,101105.00
2018-08-28T22:25:35.362Z,101109.00
2018-08-28T22:28:04.411Z,101101.00
2018-08-28T22:30:34.158Z,101105.00
2018-08-28T22:33:03.299Z,101116.00
2018-08-28T22:35:32.915Z,101113.00
2018-08-28T22:38:01.975Z,101111.00
2018-08-28T22:40:31.018Z,101110.00
2018-08-28T22:43:00.056Z,101109.00
2018-08-28T22:45:29.090Z,101107.00
2018-08-28T22:47:58.158Z,101104.00
2018-08-28T22:50:27.275Z,101110.00
2018-08-28T22:52:56.315Z,101101.00
2018-08-28T22:55:25.719Z,101102.00
2018-08-28T22:57:55.045Z,101104.00
2018-08-28T23:00:25.290Z,101102.00
2018-08-28T23:02:55.383Z,101102.00
2018-08-28T23:05:24.472Z,101103.00
2018-08-28T23:07:53.678Z,101103.00
2018-08-28T23:10:22.883Z,101114.00
2018-08-28T23:12:52.207Z,101107.00
2018-08-28T23:15:21.293Z,101095.00
2018-08-28T23:17:50.371Z,101101.00
2018-08-28T23:20:19.404Z,101096.00
2018-08-28T23:22:48.451Z,101090.00
2018-08-28T23:25:17.807Z,101088.00
2018-08-28T23:27:46.869Z,101095.00
2018-08-28T23:30:16.119Z,101086.00
2018-08-28T23:32:45.187Z,101093.00
2018-08-28T23:35:14.226Z,101093.00
2018-08-28T23:37:43.271Z,101093.00
2018-08-28T23:40:12.330Z,101099.00
2018-08-28T23:42:41.400Z,101096.00
2018-08-28T23:45:10.547Z,101094.00
2018-08-28T23:47:39.638Z,101099.00
2018-08-28T23:50:08.745Z,101087.00
2018-08-28T23:52:38.165Z,101107.00
2018-08-28T23:55:07.261Z,101093.00
2018-08-28T23:57:36.337Z,101092.00
